Time;durP1;ratioP1;P1;durP2;ratioP2;P2;SDS_P1;SDS_P2;PMS_P1;PMS_P2;Temp;Humidity;BMP_temperature;BMP_pressure;BME280_temperature;BME280_humidity;BME280_pressure;Samples;Min_cycle;Max_cycle;Signal;HPM_P1;HPM_P2
2023/09/08 00:00:06;;;;;;;;;12.50;11.00;;;;;22.82;62.15;101680.09;5018433;28;8827;-68
2023/09/08 00:02:33;;;;;;;;;14.00;12.50;;;;;22.79;62.15;101673.19;5038407;23;8879;-70
2023/09/08 00:04:59;;;;;;;;;10.25;10.25;;;;;22.78;62.28;101682.50;4997223;28;8913;-69
2023/09/08 00:07:26;;;;;;;;;10.25;10.25;;;;;22.77;62.59;101677.25;5016927;28;8829;-70
2023/09/08 00:09:52;;;;;;;;;9.75;9.75;;;;;22.75;62.59;101680.25;4992584;28;8831;-70
2023/09/08 00:12:19;;;;;;;;;11.00;11.00;;;;;22.73;62.67;101678.84;5016099;28;8915;-70
2023/09/08 00:14:45;;;;;;;;;14.50;12.50;;;;;22.70;62.58;101674.72;5020821;28;8938;-69
2023/09/08 00:17:12;;;;;;;;;13.00;12.00;;;;;22.62;62.72;101667.75;5005178;28;8834;-69
2023/09/08 00:19:39;;;;;;;;;10.75;10.75;;;;;22.60;63.06;101672.66;5030093;28;8841;-70
2023/09/08 00:22:08;;;;;;;;;11.25;11.25;;;;;22.57;62.88;101675.94;5030075;28;8817;-70
2023/09/08 00:24:34;;;;;;;;;13.75;13.25;;;;;22.54;63.16;101673.69;5030271;28;8884;-70
2023/09/08 00:27:01;;;;;;;;;13.75;12.50;;;;;22.51;63.23;101674.19;5029817;28;9549;-70
2023/09/08 00:29:28;;;;;;;;;12.50;12.50;;;;;22.49;63.34;101681.84;5012683;28;8825;-69
2023/09/08 00:31:55;;;;;;;;;14.00;13.00;;;;;22.45;63.30;101677.97;5011977;28;8849;-70
2023/09/08 00:34:21;;;;;;;;;11.75;10.75;;;;;22.41;63.40;101683.13;5029876;28;8813;-70
2023/09/08 00:36:48;;;;;;;;;11.50;11.50;;;;;22.39;63.45;101688.00;5029787;28;9570;-70
2023/09/08 00:39:14;;;;;;;;;13.00;12.75;;;;;22.35;63.76;101686.03;5012250;28;8817;-70
2023/09/08 00:41:41;;;;;;;;;13.00;13.00;;;;;22.33;63.70;101688.22;5024987;28;8847;-70
2023/09/08 00:44:08;;;;;;;;;11.75;11.75;;;;;22.28;63.69;101685.38;5014181;28;8830;-70
2023/09/08 00:46:35;;;;;;;;;12.25;11.00;;;;;22.25;63.69;101689.47;4975694;28;8845;-70
2023/09/08 00:49:02;;;;;;;;;19.50;14.25;;;;;22.23;63.73;101693.53;4999029;28;8830;-70
2023/09/08 00:51:29;;;;;;;;;12.00;12.00;;;;;22.20;63.94;101686.63;5007391;28;8923;-69
2023/09/08 00:53:56;;;;;;;;;12.50;11.75;;;;;22.21;63.89;101685.56;4995434;28;8855;-70
2023/09/08 00:56:23;;;;;;;;;11.75;11.75;;;;;22.21;64.00;101689.13;5003613;28;8847;-70
2023/09/08 00:58:50;;;;;;;;;11.25;11.00;;;;;22.21;63.95;101680.91;5004046;28;8845;-70
2023/09/08 01:01:17;;;;;;;;;15.25;14.00;;;;;22.23;63.72;101679.81;5015493;28;8817;-70
2023/09/08 01:03:44;;;;;;;;;15.25;11.75;;;;;22.23;63.79;101677.91;4998836;28;8975;-70
2023/09/08 01:06:11;;;;;;;;;14.25;12.00;;;;;22.21;63.66;101680.91;5015134;28;8947;-69
2023/09/08 01:08:37;;;;;;;;;14.50;14.25;;;;;22.19;63.77;101674.81;5015357;28;8844;-68
2023/09/08 01:11:04;;;;;;;;;9.50;9.00;;;;;22.18;63.54;101675.91;5031626;28;8931;-71
2023/09/08 01:13:30;;;;;;;;;14.50;14.25;;;;;22.19;63.57;101677.56;5032759;28;8872;-72
2023/09/08 01:15:57;;;;;;;;;12.00;12.00;;;;;22.17;63.64;101681.66;5032800;28;8813;-69
2023/09/08 01:18:23;;;;;;;;;12.50;12.50;;;;;22.15;63.63;101678.34;5015003;28;8837;-69
2023/09/08 01:21:12;;;;;;;;;15.75;15.25;;;;;22.13;63.94;101684.06;5015085;28;8833;-70
2023/09/08 01:24:10;;;;;;;;;9.50;9.50;;;;;22.13;64.13;101684.06;4988451;28;8838;-70
2023/09/08 01:26:41;;;;;;;;;10.75;10.75;;;;;22.15;64.04;101681.06;4975686;28;8833;-70
2023/09/08 01:29:10;;;;;;;;;11.50;10.25;;;;;22.12;63.80;101674.16;4975783;28;8845;-71
2023/09/08 01:31:38;;;;;;;;;11.50;11.50;;;;;22.10;64.04;101675.50;4959859;28;8873;-70
2023/09/08 01:34:06;;;;;;;;;11.00;11.00;;;;;22.10;63.71;101678.22;4975884;28;8849;-70
2023/09/08 01:36:36;;;;;;;;;13.50;12.50;;;;;22.08;63.78;101674.91;4966675;28;8937;-70
2023/09/08 01:39:03;;;;;;;;;12.00;9.00;;;;;22.07;63.90;101685.03;4995035;28;8826;-69
2023/09/08 01:41:31;;;;;;;;;9.75;9.75;;;;;22.08;63.83;101678.50;4991516;28;8841;-70
2023/09/08 01:43:58;;;;;;;;;10.25;9.00;;;;;22.08;63.80;101677.63;4993004;28;8943;-70
2023/09/08 01:46:25;;;;;;;;;12.75;11.75;;;;;22.06;63.76;101677.91;4992707;28;9554;-70
2023/09/08 01:48:51;;;;;;;;;15.75;13.00;;;;;22.05;64.01;101675.41;4975453;28;8880;-70
2023/09/08 01:51:18;;;;;;;;;12.25;11.50;;;;;22.04;63.65;101669.09;4976919;28;8886;-70
2023/09/08 01:53:45;;;;;;;;;12.25;12.25;;;;;22.04;63.67;101666.38;4994648;28;8878;-70
2023/09/08 01:56:11;;;;;;;;;12.00;11.00;;;;;22.04;63.91;101666.38;4994285;28;8850;-70
2023/09/08 01:58:38;;;;;;;;;17.25;15.50;;;;;22.04;63.69;101666.38;4978625;28;8932;-70
2023/09/08 02:01:05;;;;;;;;;11.50;11.00;;;;;22.01;63.75;101669.59;4994607;28;8827;-69
2023/09/08 02:03:34;;;;;;;;;12.25;12.25;;;;;22.00;63.66;101667.09;4987194;28;8872;-70
2023/09/08 02:06:03;;;;;;;;;14.75;14.25;;;;;21.96;63.96;101664.88;4975474;28;8951;-69
2023/09/08 02:08:30;;;;;;;;;16.50;15.50;;;;;21.94;64.02;101661.53;4978485;28;8829;-69
2023/09/08 02:10:58;;;;;;;;;12.75;11.00;;;;;21.93;64.01;101667.28;5011270;28;8919;-69
2023/09/08 02:13:24;;;;;;;;;14.75;13.00;;;;;21.92;64.27;101660.97;4990341;28;8865;-69
2023/09/08 02:15:51;;;;;;;;;14.75;12.25;;;;;21.91;64.10;101666.69;4992786;28;8843;-69
2023/09/08 02:18:17;;;;;;;;;12.50;12.50;;;;;21.89;64.38;101663.38;5002218;28;8917;-69
2023/09/08 02:20:44;;;;;;;;;17.00;13.75;;;;;21.85;64.15;101654.00;5000940;28;8818;-69
2023/09/08 02:23:10;;;;;;;;;14.75;12.25;;;;;21.81;64.30;101663.78;4999443;28;8845;-69
2023/09/08 02:25:37;;;;;;;;;14.00;13.00;;;;;21.77;64.36;101660.72;4974879;28;8853;-69
2023/09/08 02:28:04;;;;;;;;;15.25;15.25;;;;;21.71;64.51;101659.81;4974425;28;8845;-69
2023/09/08 02:30:31;;;;;;;;;16.50;15.00;;;;;21.67;64.63;101653.16;4974716;28;8967;-69
2023/09/08 02:32:59;;;;;;;;;17.25;15.25;;;;;21.61;64.78;101654.16;4974534;28;9023;-69
2023/09/08 02:35:25;;;;;;;;;16.75;16.75;;;;;21.56;65.12;101648.59;4974562;28;8849;-69
2023/09/08 02:37:54;;;;;;;;;14.50;14.50;;;;;21.53;65.31;101660.03;4974330;28;8857;-69
2023/09/08 02:40:21;;;;;;;;;13.50;13.50;;;;;21.50;65.35;101655.03;4974643;28;8842;-69
2023/09/08 02:42:48;;;;;;;;;18.00;16.50;;;;;21.47;65.31;101661.88;4974270;28;8880;-69
2023/09/08 02:45:15;;;;;;;;;15.50;15.00;;;;;21.43;65.55;101668.91;4974826;28;8834;-69
2023/09/08 02:47:41;;;;;;;;;18.75;17.25;;;;;21.39;65.52;101659.53;4958234;28;8854;-69
2023/09/08 02:50:08;;;;;;;;;14.25;13.75;;;;;21.36;65.73;101664.66;4970257;28;9585;-69
2023/09/08 02:52:35;;;;;;;;;14.25;14.25;;;;;21.33;65.95;101656.94;4958106;28;8857;-69
2023/09/08 02:55:02;;;;;;;;;15.00;14.00;;;;;21.32;66.13;101660.72;4991694;28;8822;-69
2023/09/08 02:57:28;;;;;;;;;19.50;15.00;;;;;21.29;66.01;101656.56;4958250;28;8829;-69
2023/09/08 02:59:56;;;;;;;;;14.00;14.00;;;;;21.28;66.12;101663.13;4974194;28;8968;-69
2023/09/08 03:02:26;;;;;;;;;18.50;16.75;;;;;21.26;66.25;101659.78;4958098;28;8822;-69
2023/09/08 03:04:54;;;;;;;;;18.25;17.75;;;;;21.24;66.29;101653.75;4958180;28;8981;-69
2023/09/08 03:07:21;;;;;;;;;17.50;17.00;;;;;21.23;66.16;101660.31;4990900;28;8848;-69
2023/09/08 03:09:47;;;;;;;;;15.50;14.50;;;;;21.19;66.31;101659.94;4974076;28;8862;-69
2023/09/08 03:12:14;;;;;;;;;15.00;13.50;;;;;21.19;66.47;101665.44;4998559;28;8842;-69
2023/09/08 03:14:40;;;;;;;;;18.00;16.50;;;;;21.17;66.53;101659.34;4991269;28;8830;-68
2023/09/08 03:17:07;;;;;;;;;14.25;14.00;;;;;21.16;66.56;101657.69;4991175;28;8864;-69
2023/09/08 03:19:34;;;;;;;;;16.75;15.00;;;;;21.16;66.62;101656.88;4973882;28;8860;-68
2023/09/08 03:22:00;;;;;;;;;16.00;15.75;;;;;21.13;66.60;101655.44;4990055;28;8841;-68
2023/09/08 03:24:27;;;;;;;;;13.75;13.75;;;;;21.13;66.58;101652.69;4960650;28;8842;-70
2023/09/08 03:26:53;;;;;;;;;15.25;15.25;;;;;21.13;66.68;101649.97;4989500;28;8842;-69
2023/09/08 03:29:20;;;;;;;;;11.25;11.25;;;;;21.15;66.61;101649.75;4989743;28;8821;-68
2023/09/08 03:31:47;;;;;;;;;13.00;12.25;;;;;21.14;66.52;101639.84;4989784;28;8849;-69
2023/09/08 03:34:14;;;;;;;;;15.00;15.00;;;;;21.14;66.58;101639.84;4957660;28;9033;-69
2023/09/08 03:36:41;;;;;;;;;17.00;14.00;;;;;21.12;66.45;101640.09;4973339;28;8939;-69
2023/09/08 03:39:09;;;;;;;;;15.00;14.75;;;;;21.11;66.33;101638.44;4989576;28;9582;-69
2023/09/08 03:41:37;;;;;;;;;15.75;14.25;;;;;21.10;66.33;101641.41;4989230;28;8964;-68
2023/09/08 03:44:03;;;;;;;;;11.75;11.75;;;;;21.09;66.49;101639.75;4999840;28;8845;-69
2023/09/08 03:46:30;;;;;;;;;15.50;13.25;;;;;21.08;66.33;101633.44;4973289;28;8872;-69
2023/09/08 03:49:00;;;;;;;;;13.00;12.00;;;;;21.07;66.50;101633.72;4991055;28;8826;-69
2023/09/08 03:51:27;;;;;;;;;17.50;13.00;;;;;21.07;66.52;101644.66;4973785;28;8862;-69
2023/09/08 03:53:54;;;;;;;;;17.25;17.25;;;;;21.04;66.52;101639.66;4990726;28;8841;-68
2023/09/08 03:56:21;;;;;;;;;19.00;17.25;;;;;20.99;66.71;101633.03;4973320;28;8833;-69
2023/09/08 03:58:47;;;;;;;;;17.50;16.25;;;;;20.95;66.53;101637.31;4990910;28;8837;-69
2023/09/08 04:01:14;;;;;;;;;16.25;15.00;;;;;20.94;66.67;101632.94;4989562;28;8860;-69
2023/09/08 04:03:41;;;;;;;;;15.50;14.50;;;;;20.93;66.68;101633.97;4973182;28;8916;-69
2023/09/08 04:06:09;;;;;;;;;16.00;12.00;;;;;20.93;66.89;101638.63;4973151;28;8817;-68
2023/09/08 04:08:35;;;;;;;;;15.25;15.25;;;;;20.92;66.82;101639.72;4973202;28;8845;-69
2023/09/08 04:11:02;;;;;;;;;15.00;14.25;;;;;20.89;66.78;101635.53;4969907;28;8828;-69
2023/09/08 04:13:28;;;;;;;;;14.50;14.50;;;;;20.88;66.80;101638.53;4976588;28;8909;-68
2023/09/08 04:15:55;;;;;;;;;17.75;15.25;;;;;20.86;66.80;101632.47;4976023;28;8847;-69
2023/09/08 04:18:21;;;;;;;;;15.75;13.50;;;;;20.84;66.89;101629.16;5010061;28;8905;-69
2023/09/08 04:20:48;;;;;;;;;16.00;13.25;;;;;20.83;66.96;101628.31;4990984;28;8860;-68
2023/09/08 04:23:15;;;;;;;;;15.75;15.25;;;;;20.82;66.79;101631.28;4994593;28;8835;-69
2023/09/08 04:25:41;;;;;;;;;14.00;14.00;;;;;20.82;66.82;101628.53;5020536;28;8827;-69
2023/09/08 04:28:08;;;;;;;;;14.00;14.00;;;;;20.81;66.84;101627.72;4984129;28;9644;-69
2023/09/08 04:30:35;;;;;;;;;17.00;16.00;;;;;20.81;66.84;101624.16;4994404;28;8972;-69
2023/09/08 04:33:01;;;;;;;;;18.75;14.50;;;;;20.78;66.73;101627.38;4976755;28;8853;-69
2023/09/08 04:35:29;;;;;;;;;18.75;15.75;;;;;20.75;66.71;101634.19;4979050;28;8885;-68
2023/09/08 04:37:55;;;;;;;;;18.25;16.00;;;;;20.72;66.76;101629.19;5004188;28;8856;-69
2023/09/08 04:40:22;;;;;;;;;19.00;15.75;;;;;20.70;66.94;101631.31;4992214;28;8831;-68
2023/09/08 04:42:49;;;;;;;;;11.75;11.75;;;;;20.69;67.03;101635.13;4987536;28;8976;-69
2023/09/08 04:45:15;;;;;;;;;16.50;16.50;;;;;20.66;67.13;101633.72;4991052;28;8920;-69
2023/09/08 04:47:42;;;;;;;;;19.25;19.00;;;;;20.64;66.91;101635.88;4962220;28;8881;-68
2023/09/08 04:50:09;;;;;;;;;16.00;15.75;;;;;20.64;67.02;101635.03;4987325;28;8925;-69
2023/09/08 04:52:36;;;;;;;;;15.00;13.75;;;;;20.62;67.00;101640.75;5012148;28;8847;-69
2023/09/08 04:55:04;;;;;;;;;16.00;16.00;;;;;20.61;67.03;101632.78;4992345;28;8864;-69
2023/09/08 04:57:30;;;;;;;;;17.50;17.00;;;;;20.59;67.09;101635.75;4976228;28;8949;-68
2023/09/08 04:59:57;;;;;;;;;14.75;14.00;;;;;20.59;67.30;101643.16;4995264;28;8878;-69
2023/09/08 05:02:24;;;;;;;;;17.50;16.00;;;;;20.58;67.09;101630.53;4995447;28;8827;-69
2023/09/08 05:04:51;;;;;;;;;13.00;13.00;;;;;20.58;67.20;101634.09;5008158;28;8866;-69
2023/09/08 05:07:18;;;;;;;;;15.50;13.75;;;;;20.59;67.16;101635.75;5006161;28;8839;-69
2023/09/08 05:09:45;;;;;;;;;18.25;15.75;;;;;20.59;67.13;101635.75;4993222;28;8974;-68
2023/09/08 05:12:12;;;;;;;;;18.50;15.50;;;;;20.58;67.19;101641.47;4997121;28;9089;-69
2023/09/08 05:14:39;;;;;;;;;14.00;12.00;;;;;20.57;67.16;101632.44;5003490;28;8948;-69
2023/09/08 05:17:05;;;;;;;;;16.75;14.75;;;;;20.55;67.04;101629.13;4991302;28;8845;-69
2023/09/08 05:19:32;;;;;;;;;17.75;16.75;;;;;20.56;67.25;101635.41;4992042;28;8909;-69
2023/09/08 05:21:58;;;;;;;;;13.75;13.25;;;;;20.53;67.15;101631.25;4993902;28;9588;-69
2023/09/08 05:24:26;;;;;;;;;19.75;15.75;;;;;20.54;67.26;101634.81;5018312;28;8960;-69
2023/09/08 05:26:53;;;;;;;;;16.75;13.00;;;;;20.55;67.27;101633.75;5001087;28;8834;-69
2023/09/08 05:29:20;;;;;;;;;12.75;12.75;;;;;20.54;67.37;101637.53;4983608;28;8847;-69
2023/09/08 05:31:47;;;;;;;;;13.25;12.25;;;;;20.54;67.23;101630.19;4989020;28;8863;-69
2023/09/08 05:34:13;;;;;;;;;12.00;11.75;;;;;20.54;67.32;101632.94;4985419;28;8857;-68
2023/09/08 05:36:42;;;;;;;;;13.00;12.75;;;;;20.55;67.40;101634.59;4988436;28;8868;-68
2023/09/08 05:39:09;;;;;;;;;18.25;15.75;;;;;20.56;67.26;101638.97;4959666;28;8984;-68
2023/09/08 05:41:35;;;;;;;;;14.50;13.25;;;;;20.57;67.43;101635.16;4991729;28;8912;-68
2023/09/08 05:44:02;;;;;;;;;19.50;16.50;;;;;20.56;67.46;101638.16;4975251;28;9055;-68
2023/09/08 05:46:29;;;;;;;;;13.00;13.00;;;;;20.56;67.42;101647.19;4994314;28;8833;-68
2023/09/08 05:48:56;;;;;;;;;12.00;11.75;;;;;20.57;67.43;101643.38;4986110;28;8961;-68
2023/09/08 05:51:23;;;;;;;;;14.50;13.50;;;;;20.58;67.38;101646.94;4991103;28;8982;-68
2023/09/08 05:53:51;;;;;;;;;16.50;15.25;;;;;20.59;67.33;101640.41;5003440;28;8885;-68
2023/09/08 05:56:19;;;;;;;;;15.50;15.25;;;;;20.62;67.54;101645.38;4992663;28;8913;-68
2023/09/08 05:58:47;;;;;;;;;18.50;17.75;;;;;20.63;67.43;101650.63;4985305;28;8843;-69
2023/09/08 06:01:14;;;;;;;;;18.50;15.50;;;;;20.63;67.47;101650.63;4984663;28;8855;-68
2023/09/08 06:03:58;;;;;;;;;14.50;13.75;;;;;20.64;67.51;101654.19;5031247;23;8925;-67
2023/09/08 06:06:33;;;;;;;;;14.25;14.25;;;;;20.64;67.71;101657.75;4989432;28;8830;-67
2023/09/08 06:08:59;;;;;;;;;19.00;15.25;;;;;20.64;67.75;101663.22;4986883;28;8858;-67
2023/09/08 06:11:27;;;;;;;;;15.25;15.00;;;;;20.63;67.91;101668.94;4987614;28;8860;-67
2023/09/08 06:13:58;;;;;;;;;16.25;15.00;;;;;20.65;67.92;101667.63;4974605;28;8879;-67
2023/09/08 06:16:27;;;;;;;;;14.25;12.25;;;;;20.65;68.08;101673.09;4955389;28;8848;-67
2023/09/08 06:18:53;;;;;;;;;16.00;16.00;;;;;20.66;68.13;101674.78;4966478;28;8965;-68
2023/09/08 06:21:20;;;;;;;;;16.50;16.50;;;;;20.66;68.18;101679.38;4961131;28;8859;-67
2023/09/08 06:23:47;;;;;;;;;13.25;12.50;;;;;20.66;68.17;101680.25;4950601;28;8952;-67
2023/09/08 06:26:14;;;;;;;;;9.75;9.50;;;;;20.70;68.34;101681.44;4990556;28;8841;-67
2023/09/08 06:28:43;;;;;;;;;15.50;13.00;;;;;20.73;68.10;101680.09;4989412;28;8857;-67
2023/09/08 06:31:09;;;;;;;;;13.50;12.50;;;;;20.75;68.10;101675.22;4972465;28;8837;-68
2023/09/08 06:33:38;;;;;;;;;12.75;12.75;;;;;20.73;67.96;101675.44;4966308;28;8998;-68
2023/09/08 06:36:06;;;;;;;;;16.00;14.75;;;;;20.75;67.96;101677.97;4990543;28;8880;-67
2023/09/08 06:38:33;;;;;;;;;11.50;11.50;;;;;20.76;67.85;101674.16;4974250;28;8872;-67
2023/09/08 06:41:01;;;;;;;;;14.00;14.00;;;;;20.79;67.76;101681.03;4989639;28;8825;-68
2023/09/08 06:43:28;;;;;;;;;15.50;15.50;;;;;20.81;67.73;101681.63;4972539;28;8837;-67
2023/09/08 06:46:02;;;;;;;;;15.75;14.50;;;;;20.84;67.80;101684.72;4962839;28;8971;-68
2023/09/08 06:48:29;;;;;;;;;14.25;13.75;;;;;20.87;67.58;101686.97;4974222;28;8845;-67
2023/09/08 06:50:56;;;;;;;;;14.50;13.75;;;;;20.90;67.50;101680.16;4989483;28;8829;-68
2023/09/08 06:53:24;;;;;;;;;14.50;12.75;;;;;20.93;67.53;101682.41;4989693;28;8847;-68
2023/09/08 06:55:51;;;;;;;;;20.75;18.50;;;;;20.94;67.57;101686.81;4980507;28;8812;-68
2023/09/08 06:58:18;;;;;;;;;17.25;16.00;;;;;20.97;67.42;101686.34;4954663;28;8827;-68
2023/09/08 07:00:45;;;;;;;;;14.50;13.50;;;;;21.00;67.41;101680.38;4972218;28;8900;-67
2023/09/08 07:03:12;;;;;;;;;19.75;15.75;;;;;21.02;67.26;101682.88;4972220;28;8859;-68
2023/09/08 07:05:40;;;;;;;;;16.50;15.00;;;;;21.03;67.37;101685.38;4965326;28;8851;-67
2023/09/08 07:08:07;;;;;;;;;16.75;15.75;;;;;21.09;67.17;101675.34;4967570;28;8817;-68
2023/09/08 07:10:34;;;;;;;;;16.50;16.25;;;;;21.10;67.28;101677.00;4974055;28;8844;-68
2023/09/08 07:13:01;;;;;;;;;16.25;14.50;;;;;21.14;67.33;101686.38;4974055;28;8950;-67
2023/09/08 07:15:27;;;;;;;;;19.00;17.50;;;;;21.18;67.15;101690.28;4989473;28;8865;-67
2023/09/08 07:17:54;;;;;;;;;18.00;17.75;;;;;21.20;67.26;101686.25;4987167;28;8834;-67
2023/09/08 07:20:21;;;;;;;;;18.00;17.00;;;;;21.22;67.17;101684.09;4981438;28;8943;-67
2023/09/08 07:22:48;;;;;;;;;17.75;16.75;;;;;21.24;67.38;101686.59;4989665;28;8814;-68
2023/09/08 07:25:14;;;;;;;;;16.50;13.75;;;;;21.30;67.18;101685.59;4973762;28;8841;-68
2023/09/08 07:27:42;;;;;;;;;14.00;14.00;;;;;21.34;67.38;101685.97;4985818;28;9669;-68
2023/09/08 07:30:08;;;;;;;;;16.25;14.50;;;;;21.38;67.32;101681.66;4961635;28;8828;-68
2023/09/08 07:32:35;;;;;;;;;16.50;16.50;;;;;21.40;67.30;101687.75;4954080;28;8831;-68
2023/09/08 07:35:02;;;;;;;;;19.00;18.75;;;;;21.40;67.26;101685.84;4971435;28;8847;-68
2023/09/08 07:37:29;;;;;;;;;18.25;18.25;;;;;21.43;67.26;101685.34;4959294;28;9576;-67
2023/09/08 07:39:56;;;;;;;;;15.25;14.50;;;;;21.46;67.43;101689.50;4962442;28;8838;-67
2023/09/08 07:42:23;;;;;;;;;22.75;19.50;;;;;21.50;67.25;101684.34;4971123;28;8838;-67
2023/09/08 07:44:50;;;;;;;;;17.00;17.00;;;;;21.54;67.17;101683.59;4965779;28;9685;-69
2023/09/08 07:47:16;;;;;;;;;21.00;17.00;;;;;21.58;67.26;101683.94;4988218;28;8834;-68
2023/09/08 07:49:47;;;;;;;;;20.50;19.50;;;;;21.62;67.27;101685.94;4987263;28;8817;-67
2023/09/08 07:52:13;;;;;;;;;16.00;15.00;;;;;21.69;67.35;101683.88;4953674;28;9630;-64
2023/09/08 07:54:40;;;;;;;;;16.00;13.00;;;;;21.72;67.48;101674.34;4979391;28;8849;-69
2023/09/08 07:57:06;;;;;;;;;14.00;14.00;;;;;21.77;67.46;101679.91;4993410;28;8842;-67
2023/09/08 07:59:33;;;;;;;;;18.50;16.25;;;;;21.81;67.32;101680.25;4992051;28;8865;-67
2023/09/08 08:02:03;;;;;;;;;12.00;11.25;;;;;21.87;67.62;101671.00;4974782;28;8965;-68
2023/09/08 08:04:29;;;;;;;;;12.00;11.00;;;;;21.90;67.70;101674.09;4973999;28;8815;-67
2023/09/08 08:06:56;;;;;;;;;15.25;15.25;;;;;21.96;67.54;101675.00;4975496;28;8855;-68
2023/09/08 08:09:22;;;;;;;;;13.75;12.75;;;;;22.00;67.50;101667.94;4972019;28;8868;-68
2023/09/08 08:11:49;;;;;;;;;16.75;16.75;;;;;22.05;67.71;101670.75;4990893;28;8857;-68
2023/09/08 08:14:15;;;;;;;;;16.25;14.75;;;;;22.08;67.71;101672.16;4994424;28;8869;-68
2023/09/08 08:16:42;;;;;;;;;14.25;13.75;;;;;22.13;67.72;101675.84;4994268;28;8944;-68
2023/09/08 08:19:08;;;;;;;;;16.00;14.75;;;;;22.15;67.62;101679.16;4993413;28;8959;-68
2023/09/08 08:21:35;;;;;;;;;17.50;17.50;;;;;22.18;67.67;101681.41;4986360;28;8858;-68
2023/09/08 08:24:01;;;;;;;;;16.00;16.00;;;;;22.24;67.81;101679.59;4994375;28;9582;-67
2023/09/08 08:26:32;;;;;;;;;15.75;14.75;;;;;22.28;67.92;101682.63;4993900;28;8849;-68
2023/09/08 08:28:59;;;;;;;;;13.50;11.75;;;;;22.32;67.82;101681.91;4990457;28;8833;-68
2023/09/08 08:31:25;;;;;;;;;13.25;13.25;;;;;22.36;67.78;101672.09;4990758;28;8911;-68
2023/09/08 08:33:52;;;;;;;;;15.00;14.50;;;;;22.41;67.84;101671.31;4958830;28;8847;-67
2023/09/08 08:36:18;;;;;;;;;13.25;12.75;;;;;22.45;67.77;101670.56;4974376;28;8839;-68
2023/09/08 08:38:45;;;;;;;;;16.25;15.25;;;;;22.50;67.78;101661.56;4980784;28;8833;-68
2023/09/08 08:41:11;;;;;;;;;15.50;14.50;;;;;22.55;67.65;101671.78;4972242;28;8858;-68
2023/09/08 08:43:38;;;;;;;;;18.75;16.25;;;;;22.58;67.74;101680.31;4971964;28;8842;-67
2023/09/08 08:46:05;;;;;;;;;23.00;23.00;;;;;22.59;67.75;101673.75;4991821;28;8856;-67
2023/09/08 08:48:33;;;;;;;;;16.75;16.75;;;;;22.63;67.78;101666.66;4991872;28;8833;-67
2023/09/08 08:51:01;;;;;;;;;16.00;13.50;;;;;22.73;67.79;101665.97;4985426;28;8833;-67
2023/09/08 08:53:30;;;;;;;;;14.50;13.00;;;;;22.79;67.70;101666.88;4993525;28;9542;-67
2023/09/08 08:55:59;;;;;;;;;14.75;14.75;;;;;22.84;67.65;101678.72;4993338;28;8912;-68
2023/09/08 08:58:27;;;;;;;;;16.75;15.75;;;;;22.89;67.68;101675.25;4991873;28;8857;-68
2023/09/08 09:00:56;;;;;;;;;15.50;14.00;;;;;22.94;67.82;101686.31;4990581;28;8838;-68
2023/09/08 09:03:27;;;;;;;;;19.75;18.75;;;;;23.01;67.63;101684.19;4975462;28;8839;-67
2023/09/08 09:05:53;;;;;;;;;14.75;14.50;;;;;23.07;67.77;101683.16;4991113;28;8885;-67
2023/09/08 09:08:23;;;;;;;;;16.50;16.00;;;;;23.13;67.61;101679.41;4992103;28;8833;-68
2023/09/08 09:10:51;;;;;;;;;21.50;19.50;;;;;23.23;67.72;101686.06;4984022;28;8829;-67
2023/09/08 09:13:18;;;;;;;;;16.50;16.50;;;;;23.33;67.51;101681.50;4992019;28;8850;-68
2023/09/08 09:15:46;;;;;;;;;15.50;14.50;;;;;23.37;67.43;101690.06;4975100;28;8861;-68
2023/09/08 09:18:12;;;;;;;;;13.25;13.25;;;;;23.44;67.41;101683.25;4991725;28;8829;-68
2023/09/08 09:20:41;;;;;;;;;15.00;14.50;;;;;23.48;67.13;101688.25;4967842;28;8850;-68
2023/09/08 09:23:08;;;;;;;;;15.75;14.75;;;;;23.53;67.02;101691.88;4992912;28;8940;-68
2023/09/08 09:25:36;;;;;;;;;15.75;14.75;;;;;23.61;67.05;101690.56;4993037;28;9526;-67
2023/09/08 09:28:03;;;;;;;;;15.75;14.75;;;;;23.64;66.75;101699.13;4991489;28;8841;-68
2023/09/08 09:30:47;;;;;;;;;15.75;15.75;;;;;23.71;66.58;101700.88;4984962;28;8818;-67
2023/09/08 09:33:14;;;;;;;;;12.25;12.25;;;;;23.73;66.67;101698.69;4992044;28;8817;-67
2023/09/08 09:35:51;;;;;;;;;15.50;15.00;;;;;23.74;66.66;101692.09;4984936;28;8867;-68
2023/09/08 09:38:19;;;;;;;;;18.00;17.25;;;;;23.75;66.73;101693.75;4992223;28;8845;-67
2023/09/08 09:40:46;;;;;;;;;18.50;17.50;;;;;23.77;66.57;101691.56;4992612;28;8845;-67
2023/09/08 09:43:15;;;;;;;;;22.50;21.25;;;;;23.69;66.76;101690.13;4971749;28;9583;-68
2023/09/08 09:45:42;;;;;;;;;21.25;19.00;;;;;23.75;66.45;101686.34;4963613;28;8831;-68
2023/09/08 09:48:10;;;;;;;;;13.75;13.50;;;;;23.82;66.56;101680.59;4955393;28;8866;-68
2023/09/08 09:50:42;;;;;;;;;14.25;14.00;;;;;23.88;66.48;101685.06;4973180;28;8816;-68
2023/09/08 09:53:14;;;;;;;;;18.25;16.50;;;;;23.89;66.77;101676.53;4982557;28;9531;-68
2023/09/08 09:55:43;;;;;;;;;19.50;17.00;;;;;23.93;66.59;101674.94;4984269;28;10095;-68
2023/09/08 09:58:11;;;;;;;;;13.50;13.50;;;;;24.01;66.54;101678.28;4991637;28;9579;-67
2023/09/08 10:00:40;;;;;;;;;15.00;14.25;;;;;24.08;66.21;101670.63;4992100;28;8852;-67
2023/09/08 10:03:08;;;;;;;;;17.50;15.75;;;;;24.11;65.85;101670.94;4973177;28;8830;-68
2023/09/08 10:05:37;;;;;;;;;15.25;15.25;;;;;24.16;65.80;101670.97;4966524;28;8928;-68
2023/09/08 10:08:04;;;;;;;;;16.50;15.25;;;;;24.20;65.82;101674.03;4972579;28;8834;-68
2023/09/08 10:10:32;;;;;;;;;21.00;21.00;;;;;24.29;65.62;101668.84;4989760;28;8825;-67
2023/09/08 10:13:03;;;;;;;;;18.75;17.00;;;;;24.34;65.50;101664.19;4986859;28;8903;-68
2023/09/08 10:15:31;;;;;;;;;14.00;13.00;;;;;24.41;65.60;101666.75;4992008;28;8860;-67
2023/09/08 10:18:03;;;;;;;;;16.50;16.50;;;;;24.40;65.43;101663.16;4987791;28;9066;-68
2023/09/08 10:20:31;;;;;;;;;15.00;14.00;;;;;24.41;65.37;101662.06;4980429;28;8926;-68
2023/09/08 10:23:12;;;;;;;;;13.25;13.25;;;;;24.47;65.59;101660.19;4954657;28;8936;-68
2023/09/08 10:25:53;;;;;;;;;17.75;15.00;;;;;24.55;65.68;101669.84;4954819;28;8844;-68
2023/09/08 10:28:22;;;;;;;;;15.00;14.50;;;;;24.56;65.70;101664.06;4979782;28;8833;-68
2023/09/08 10:30:50;;;;;;;;;16.00;16.00;;;;;24.65;65.54;101669.91;4995963;28;8856;-68
2023/09/08 10:33:17;;;;;;;;;15.75;15.75;;;;;24.67;65.40;101673.19;4991402;28;9015;-68
2023/09/08 10:35:45;;;;;;;;;13.50;13.50;;;;;24.70;65.25;101667.16;4991126;28;8875;-68
2023/09/08 10:38:31;;;;;;;;;14.75;14.75;;;;;24.76;65.03;101670.78;4985456;28;8858;-68
2023/09/08 10:41:16;;;;;;;;;17.25;17.00;;;;;24.78;64.84;101677.66;4973686;28;9503;-68
2023/09/08 10:43:54;;;;;;;;;18.50;18.50;;;;;24.81;64.74;101674.38;4973921;28;8868;-67
2023/09/08 10:46:22;;;;;;;;;17.50;16.75;;;;;24.84;64.69;101679.34;4972789;28;8898;-68
2023/09/08 10:48:49;;;;;;;;;20.75;19.50;;;;;24.95;64.37;101680.19;4970745;28;8923;-67
2023/09/08 10:51:18;;;;;;;;;18.50;18.50;;;;;24.99;64.53;101674.97;4984961;28;8967;-68
2023/09/08 10:53:49;;;;;;;;;18.75;18.50;;;;;25.04;64.16;101678.59;4991568;28;8911;-68
2023/09/08 10:56:16;;;;;;;;;17.75;17.75;;;;;25.10;64.16;101679.44;4989802;28;8837;-68
2023/09/08 10:58:49;;;;;;;;;16.75;16.50;;;;;25.11;63.68;101684.69;4972746;28;8826;-68
2023/09/08 11:01:18;;;;;;;;;18.00;18.00;;;;;25.13;63.85;101679.75;4984982;28;8837;-67
2023/09/08 11:03:49;;;;;;;;;18.50;17.50;;;;;25.14;63.85;101675.88;4991153;28;8861;-68
2023/09/08 11:06:23;;;;;;;;;19.00;17.75;;;;;25.14;63.71;101680.56;4990127;28;8857;-68
2023/09/08 11:08:55;;;;;;;;;12.25;12.25;;;;;25.20;63.92;101675.88;4972002;28;8976;-68
2023/09/08 11:11:22;;;;;;;;;14.75;14.75;;;;;25.25;64.49;101681.44;4973231;28;8849;-67
2023/09/08 11:13:49;;;;;;;;;23.25;21.25;;;;;25.34;63.48;101683.38;4991162;28;8853;-68
2023/09/08 11:16:15;;;;;;;;;19.25;17.50;;;;;25.43;63.39;101678.13;4972207;28;8857;-68
2023/09/08 11:18:42;;;;;;;;;20.00;20.00;;;;;25.40;63.81;101671.25;4986716;28;8860;-68